sensor_id;sensor_type;location;lat;lon;timestamp;pressure;altitude;pressure_sealevel;temperature;humidity
33731;BME280;22931;48.636;9.000;2023-12-20T00:04:41;95999.88;;;8.60;60.31
33731;BME280;22931;48.636;9.000;2023-12-20T00:10:01;96003.47;;;8.55;60.34
33731;BME280;22931;48.636;9.000;2023-12-20T00:15:29;95991.56;;;8.58;60.08
33731;BME280;22931;48.636;9.000;2023-12-20T00:20:45;95996.03;;;8.57;60.21
33731;BME280;22931;48.636;9.000;2023-12-20T00:26:02;95975.84;;;8.58;60.22
33731;BME280;22931;48.636;9.000;2023-12-20T00:31:33;95969.63;;;8.62;60.65
33731;BME280;22931;48.636;9.000;2023-12-20T00:36:51;95972.25;;;8.62;60.54
33731;BME280;22931;48.636;9.000;2023-12-20T00:41:59;95963.50;;;8.58;60.31
33731;BME280;22931;48.636;9.000;2023-12-20T00:53:02;95965.03;;;8.59;60.58
33731;BME280;22931;48.636;9.000;2023-12-20T00:58:34;95951.91;;;8.59;61.00
33731;BME280;22931;48.636;9.000;2023-12-20T01:04:00;95963.69;;;8.53;60.91
33731;BME280;22931;48.636;9.000;2023-12-20T01:09:37;95971.38;;;8.58;60.83
33731;BME280;22931;48.636;9.000;2023-12-20T01:14:56;95969.56;;;8.50;60.78
33731;BME280;22931;48.636;9.000;2023-12-20T01:20:06;95971.75;;;8.48;60.79
33731;BME280;22931;48.636;9.000;2023-12-20T01:25:50;95976.97;;;8.48;60.85
33731;BME280;22931;48.636;9.000;2023-12-20T01:30:58;95979.78;;;8.43;61.09
33731;BME280;22931;48.636;9.000;2023-12-20T01:36:14;95978.56;;;8.41;61.11
33731;BME280;22931;48.636;9.000;2023-12-20T01:41:57;95979.34;;;8.41;61.52
33731;BME280;22931;48.636;9.000;2023-12-20T01:47:04;95976.56;;;8.38;61.35
33731;BME280;22931;48.636;9.000;2023-12-20T01:52:45;95979.97;;;8.38;61.56
33731;BME280;22931;48.636;9.000;2023-12-20T01:57:56;95969.47;;;8.38;61.73
33731;BME280;22931;48.636;9.000;2023-12-20T02:03:05;95955.47;;;8.34;61.44
33731;BME280;22931;48.636;9.000;2023-12-20T02:08:54;95968.84;;;8.41;61.57
33731;BME280;22931;48.636;9.000;2023-12-20T02:14:04;95964.88;;;8.35;61.75
33731;BME280;22931;48.636;9.000;2023-12-20T02:19:56;95972.25;;;8.42;62.53
33731;BME280;22931;48.636;9.000;2023-12-20T02:31:03;95968.59;;;8.34;62.09
33731;BME280;22931;48.636;9.000;2023-12-20T02:36:57;95963.63;;;8.41;62.33
33731;BME280;22931;48.636;9.000;2023-12-20T02:42:05;95961.34;;;8.31;62.11
33731;BME280;22931;48.636;9.000;2023-12-20T02:47:59;95966.72;;;8.35;62.38
33731;BME280;22931;48.636;9.000;2023-12-20T02:53:06;95967.38;;;8.32;61.98
33731;BME280;22931;48.636;9.000;2023-12-20T02:58:42;95970.75;;;8.32;62.21
33731;BME280;22931;48.636;9.000;2023-12-20T03:04:00;95972.72;;;8.35;62.09
33731;BME280;22931;48.636;9.000;2023-12-20T03:09:32;95974.53;;;8.43;62.45
33731;BME280;22931;48.636;9.000;2023-12-20T03:15:22;95979.63;;;8.40;62.31
33731;BME280;22931;48.636;9.000;2023-12-20T03:20:54;95985.47;;;8.45;62.59
33731;BME280;22931;48.636;9.000;2023-12-20T03:26:02;95987.84;;;8.38;62.31
33731;BME280;22931;48.636;9.000;2023-12-20T03:37:05;96001.84;;;8.42;62.37
33731;BME280;22931;48.636;9.000;2023-12-20T03:43:00;96006.63;;;8.40;62.23
33731;BME280;22931;48.636;9.000;2023-12-20T04:00:04;96008.34;;;8.36;62.26
33731;BME280;22931;48.636;9.000;2023-12-20T04:05:45;96004.97;;;8.36;62.38
33731;BME280;22931;48.636;9.000;2023-12-20T04:11:03;96009.31;;;8.32;62.21
33731;BME280;22931;48.636;9.000;2023-12-20T04:16:47;96008.81;;;8.38;62.73
33731;BME280;22931;48.636;9.000;2023-12-20T04:21:59;96010.25;;;8.27;62.15
33731;BME280;22931;48.636;9.000;2023-12-20T04:33:03;96017.16;;;8.23;62.49
33731;BME280;22931;48.636;9.000;2023-12-20T04:38:57;96018.56;;;8.21;62.78
33731;BME280;22931;48.636;9.000;2023-12-20T04:44:05;96024.31;;;8.14;62.45
33731;BME280;22931;48.636;9.000;2023-12-20T04:49:59;96042.78;;;8.18;62.74
33731;BME280;22931;48.636;9.000;2023-12-20T04:55:50;96038.31;;;8.18;63.30
33731;BME280;22931;48.636;9.000;2023-12-20T05:01:05;96053.63;;;8.08;62.69
33731;BME280;22931;48.636;9.000;2023-12-20T05:07:00;96042.97;;;8.13;63.40
33731;BME280;22931;48.636;9.000;2023-12-20T05:18:00;96070.25;;;8.03;62.92
33731;BME280;22931;48.636;9.000;2023-12-20T05:23:45;96076.56;;;8.11;63.44
33731;BME280;22931;48.636;9.000;2023-12-20T05:28:59;96075.50;;;8.03;63.02
33731;BME280;22931;48.636;9.000;2023-12-20T05:34:06;96083.06;;;8.05;63.21
33731;BME280;22931;48.636;9.000;2023-12-20T05:39:43;96086.13;;;8.07;63.17
33731;BME280;22931;48.636;9.000;2023-12-20T05:44:56;96091.06;;;8.08;63.04
33731;BME280;22931;48.636;9.000;2023-12-20T05:50:05;96113.72;;;8.04;62.81
33731;BME280;22931;48.636;9.000;2023-12-20T05:55:58;96108.31;;;8.09;63.28
33731;BME280;22931;48.636;9.000;2023-12-20T06:01:06;96107.59;;;8.00;62.85
33731;BME280;22931;48.636;9.000;2023-12-20T06:06:56;96117.91;;;8.05;63.29
33731;BME280;22931;48.636;9.000;2023-12-20T06:12:56;96125.94;;;8.00;63.10
33731;BME280;22931;48.636;9.000;2023-12-20T06:18:02;96122.84;;;7.98;63.06
33731;BME280;22931;48.636;9.000;2023-12-20T06:23:12;96130.72;;;7.98;63.19
33731;BME280;22931;48.636;9.000;2023-12-20T06:28:23;96123.59;;;7.98;63.40
33731;BME280;22931;48.636;9.000;2023-12-20T06:40:17;96144.09;;;8.05;64.11
33731;BME280;22931;48.636;9.000;2023-12-20T07:11:11;96156.13;;;7.97;64.03
33731;BME280;22931;48.636;9.000;2023-12-20T07:16:46;96168.28;;;7.93;63.74
33731;BME280;22931;48.636;9.000;2023-12-20T07:22:23;96177.88;;;7.98;64.04
33731;BME280;22931;48.636;9.000;2023-12-20T07:28:28;96188.03;;;7.99;63.81
33731;BME280;22931;48.636;9.000;2023-12-20T07:34:19;96202.53;;;7.97;63.87
33731;BME280;22931;48.636;9.000;2023-12-20T07:39:50;96200.50;;;7.94;64.18
33731;BME280;22931;48.636;9.000;2023-12-20T07:59:13;96216.25;;;8.03;65.41
33731;BME280;22931;48.636;9.000;2023-12-20T08:19:08;96225.03;;;7.98;65.94
33731;BME280;22931;48.636;9.000;2023-12-20T08:25:42;96223.47;;;7.97;66.43
33731;BME280;22931;48.636;9.000;2023-12-20T08:32:20;96231.78;;;7.99;66.80
33731;BME280;22931;48.636;9.000;2023-12-20T08:44:04;96244.13;;;7.98;65.81
33731;BME280;22931;48.636;9.000;2023-12-20T08:49:53;96263.56;;;7.97;64.98
33731;BME280;22931;48.636;9.000;2023-12-20T08:57:45;96285.28;;;7.98;64.83
33731;BME280;22931;48.636;9.000;2023-12-20T09:02:13;96285.59;;;7.96;64.71
33731;BME280;22931;48.636;9.000;2023-12-20T09:08:13;96279.88;;;7.86;64.24
33731;BME280;22931;48.636;9.000;2023-12-20T09:13:35;96281.28;;;7.83;64.08
33731;BME280;22931;48.636;9.000;2023-12-20T09:19:30;96278.47;;;7.80;64.06
33731;BME280;22931;48.636;9.000;2023-12-20T09:25:03;96274.63;;;7.69;63.73
33731;BME280;22931;48.636;9.000;2023-12-20T09:30:29;96288.78;;;7.68;63.62
33731;BME280;22931;48.636;9.000;2023-12-20T09:35:51;96277.38;;;7.64;63.76
33731;BME280;22931;48.636;9.000;2023-12-20T09:41:02;96281.97;;;7.67;63.91
33731;BME280;22931;48.636;9.000;2023-12-20T09:46:31;96289.09;;;7.75;63.85
33731;BME280;22931;48.636;9.000;2023-12-20T09:51:50;96290.66;;;7.76;63.61
33731;BME280;22931;48.636;9.000;2023-12-20T09:57:09;96302.38;;;7.87;63.56
33731;BME280;22931;48.636;9.000;2023-12-20T10:02:26;96294.19;;;7.88;63.38
33731;BME280;22931;48.636;9.000;2023-12-20T10:07:44;96276.34;;;7.90;63.35
33731;BME280;22931;48.636;9.000;2023-12-20T10:13:09;96285.13;;;7.86;63.03
33731;BME280;22931;48.636;9.000;2023-12-20T10:18:32;96295.75;;;7.89;62.92
33731;BME280;22931;48.636;9.000;2023-12-20T10:23:47;96278.47;;;7.88;62.94
33731;BME280;22931;48.636;9.000;2023-12-20T10:29:04;96270.47;;;7.93;62.83
33731;BME280;22931;48.636;9.000;2023-12-20T10:34:22;96248.28;;;7.99;62.61
33731;BME280;22931;48.636;9.000;2023-12-20T10:39:34;96248.44;;;8.03;62.48
33731;BME280;22931;48.636;9.000;2023-12-20T10:44:44;96258.31;;;8.06;62.30
33731;BME280;22931;48.636;9.000;2023-12-20T10:50:15;96246.28;;;8.14;62.42
33731;BME280;22931;48.636;9.000;2023-12-20T10:55:36;96249.50;;;8.11;62.26
33731;BME280;22931;48.636;9.000;2023-12-20T11:01:10;96242.28;;;8.16;62.20
33731;BME280;22931;48.636;9.000;2023-12-20T11:12:50;96240.44;;;8.17;61.73
33731;BME280;22931;48.636;9.000;2023-12-20T11:18:15;96238.13;;;8.15;62.00
33731;BME280;22931;48.636;9.000;2023-12-20T11:29:34;96229.03;;;8.21;61.28
33731;BME280;22931;48.636;9.000;2023-12-20T11:35:16;96236.88;;;8.21;61.54
33731;BME280;22931;48.636;9.000;2023-12-20T11:40:29;96229.03;;;8.21;61.55
33731;BME280;22931;48.636;9.000;2023-12-20T11:46:08;96223.66;;;8.26;61.05
33731;BME280;22931;48.636;9.000;2023-12-20T11:51:26;96233.03;;;8.19;60.96
33731;BME280;22931;48.636;9.000;2023-12-20T11:56:33;96235.97;;;8.17;61.07
33731;BME280;22931;48.636;9.000;2023-12-20T12:02:08;96226.84;;;8.23;60.71
33731;BME280;22931;48.636;9.000;2023-12-20T12:07:33;96229.63;;;8.18;60.84
33731;BME280;22931;48.636;9.000;2023-12-20T12:13:00;96217.75;;;8.21;60.62
33731;BME280;22931;48.636;9.000;2023-12-20T12:24:29;96203.28;;;8.15;60.38
33731;BME280;22931;48.636;9.000;2023-12-20T12:30:00;96201.59;;;8.10;60.72
33731;BME280;22931;48.636;9.000;2023-12-20T12:35:38;96189.88;;;8.16;60.23
33731;BME280;22931;48.636;9.000;2023-12-20T12:41:59;96187.69;;;8.18;60.02
33731;BME280;22931;48.636;9.000;2023-12-20T12:46:54;96188.34;;;8.15;60.44
33731;BME280;22931;48.636;9.000;2023-12-20T12:52:02;96183.56;;;8.17;60.33
33731;BME280;22931;48.636;9.000;2023-12-20T12:57:35;96182.00;;;8.25;60.35
33731;BME280;22931;48.636;9.000;2023-12-20T13:09:04;96185.69;;;8.32;60.10
33731;BME280;22931;48.636;9.000;2023-12-20T13:14:25;96177.97;;;8.36;59.68
33731;BME280;22931;48.636;9.000;2023-12-20T13:32:14;96182.63;;;8.39;59.58
33731;BME280;22931;48.636;9.000;2023-12-20T14:17:37;96180.78;;;8.31;59.40
33731;BME280;22931;48.636;9.000;2023-12-20T14:23:28;96169.06;;;8.28;59.29
33731;BME280;22931;48.636;9.000;2023-12-20T14:29:02;96172.25;;;8.25;58.99
33731;BME280;22931;48.636;9.000;2023-12-20T14:34:43;96165.03;;;8.22;59.37
33731;BME280;22931;48.636;9.000;2023-12-20T14:42:51;96167.81;;;8.17;59.11
33731;BME280;22931;48.636;9.000;2023-12-20T14:46:38;96170.75;;;8.07;60.01
33731;BME280;22931;48.636;9.000;2023-12-20T14:52:25;96150.28;;;8.01;59.78
33731;BME280;22931;48.636;9.000;2023-12-20T14:58:20;96158.75;;;7.89;60.17
33731;BME280;22931;48.636;9.000;2023-12-20T15:03:51;96158.16;;;7.83;60.59
33731;BME280;22931;48.636;9.000;2023-12-20T15:09:11;96172.16;;;7.79;60.44
33731;BME280;22931;48.636;9.000;2023-12-20T15:14:39;96176.16;;;7.76;60.37
33731;BME280;22931;48.636;9.000;2023-12-20T15:20:03;96162.91;;;7.81;60.77
33731;BME280;22931;48.636;9.000;2023-12-20T15:31:08;96171.84;;;7.63;60.99
33731;BME280;22931;48.636;9.000;2023-12-20T15:37:06;96168.16;;;7.64;61.25
33731;BME280;22931;48.636;9.000;2023-12-20T15:42:15;96170.78;;;7.56;61.27
33731;BME280;22931;48.636;9.000;2023-12-20T16:12:09;96166.16;;;7.44;61.99
33731;BME280;22931;48.636;9.000;2023-12-20T16:18:04;96171.69;;;7.43;62.00
33731;BME280;22931;48.636;9.000;2023-12-20T16:36:17;96170.13;;;7.33;61.82
33731;BME280;22931;48.636;9.000;2023-12-20T17:55:59;96177.94;;;7.07;63.28
33731;BME280;22931;48.636;9.000;2023-12-20T18:28:23;96137.91;;;7.07;63.08
33731;BME280;22931;48.636;9.000;2023-12-20T18:34:14;96149.63;;;7.09;62.78
33731;BME280;22931;48.636;9.000;2023-12-20T18:40:07;96156.09;;;7.12;62.70
33731;BME280;22931;48.636;9.000;2023-12-20T18:46:09;96153.94;;;7.14;62.96
33731;BME280;22931;48.636;9.000;2023-12-20T18:54:55;96146.72;;;7.19;62.58
33731;BME280;22931;48.636;9.000;2023-12-20T19:11:09;96125.19;;;7.22;62.42
33731;BME280;22931;48.636;9.000;2023-12-20T19:17:02;96128.09;;;7.21;62.42
33731;BME280;22931;48.636;9.000;2023-12-20T19:23:01;96114.84;;;7.17;62.56
33731;BME280;22931;48.636;9.000;2023-12-20T19:31:04;96104.06;;;7.19;62.64
33731;BME280;22931;48.636;9.000;2023-12-20T19:35:32;96091.31;;;7.17;62.70
33731;BME280;22931;48.636;9.000;2023-12-20T19:41:57;96084.69;;;7.20;62.91
33731;BME280;22931;48.636;9.000;2023-12-20T19:48:02;96093.28;;;7.20;62.45
33731;BME280;22931;48.636;9.000;2023-12-20T20:57:06;96065.13;;;7.17;62.42
33731;BME280;22931;48.636;9.000;2023-12-20T21:54:32;95974.47;;;7.30;62.24
33731;BME280;22931;48.636;9.000;2023-12-20T23:07:02;95904.22;;;7.49;62.65
33731;BME280;22931;48.636;9.000;2023-12-20T23:18:02;95873.72;;;7.53;62.28
33731;BME280;22931;48.636;9.000;2023-12-20T23:35:05;95846.59;;;7.58;62.48
33731;BME280;22931;48.636;9.000;2023-12-20T23:46:07;95816.72;;;7.59;62.30
33731;BME280;22931;48.636;9.000;2023-12-20T23:57:09;95801.91;;;7.63;62.46
